createdAt,value
2019-01-16T00:02:50.297Z,94996.78
2019-01-16T00:05:53.818Z,95008.72
2019-01-16T00:08:45.052Z,95004.31
2019-01-16T00:11:54.108Z,95004.70
2019-01-16T00:14:39.754Z,95013.91
2019-01-16T00:17:27.104Z,95018.11
2019-01-16T00:20:07.560Z,95024.80
2019-01-16T00:22:56.000Z,95026.15
2019-01-16T00:25:56.379Z,95012.42
2019-01-16T00:28:39.470Z,95006.75
2019-01-16T00:31:27.915Z,95002.91
2019-01-16T00:34:07.053Z,94999.93
2019-01-16T00:37:04.616Z,94999.12
2019-01-16T00:39:56.115Z,94995.66
2019-01-16T00:42:50.487Z,94996.27
2019-01-16T00:45:44.741Z,94997.83
2019-01-16T00:48:27.197Z,94998.88
2019-01-16T00:51:31.022Z,94990.91
2019-01-16T00:54:21.972Z,95001.91
2019-01-16T00:57:10.387Z,95005.05
2019-01-16T00:59:49.730Z,95010.13
2019-01-16T01:02:37.049Z,95013.91
2019-01-16T01:05:43.991Z,95015.42
2019-01-16T01:08:32.426Z,95019.88
2019-01-16T01:11:26.593Z,95018.18
2019-01-16T01:14:17.882Z,95025.98
2019-01-16T01:16:57.292Z,95013.03
2019-01-16T01:19:44.506Z,95015.85
2019-01-16T01:22:35.894Z,95018.53
2019-01-16T01:25:27.607Z,95013.87
2019-01-16T01:28:08.251Z,95011.40
2019-01-16T01:30:51.710Z,95016.77
2019-01-16T01:33:46.114Z,95017.11
2019-01-16T01:36:33.319Z,95006.03
2019-01-16T01:39:27.992Z,95002.73
2019-01-16T01:42:22.391Z,94998.42
2019-01-16T01:45:13.651Z,95005.30
2019-01-16T01:47:59.520Z,95003.95
2019-01-16T01:51:03.123Z,95009.14
2019-01-16T01:53:50.427Z,95010.33
2019-01-16T01:56:57.149Z,95018.00
2019-01-16T01:59:42.710Z,95011.55
2019-01-16T02:02:19.544Z,95017.18
2019-01-16T02:05:14.145Z,95009.59
2019-01-16T02:08:04.881Z,95014.50
2019-01-16T02:10:59.570Z,95005.92
2019-01-16T02:14:00.349Z,95004.08
2019-01-16T02:17:00.992Z,95003.17
2019-01-16T02:19:48.316Z,94990.02
2019-01-16T02:22:19.726Z,94997.06
2019-01-16T02:25:06.631Z,94998.07
2019-01-16T02:27:58.100Z,94991.52
2019-01-16T02:30:53.872Z,94977.37
2019-01-16T02:33:45.318Z,94978.31
2019-01-16T02:36:24.915Z,94981.09
2019-01-16T02:39:13.987Z,94977.87
2019-01-16T02:42:01.249Z,94978.61
2019-01-16T02:44:55.062Z,94975.92
2019-01-16T02:47:51.617Z,94978.61
2019-01-16T02:50:49.030Z,94981.44
2019-01-16T02:53:40.418Z,94984.59
2019-01-16T02:56:32.026Z,94982.78
2019-01-16T02:59:38.882Z,94984.27
2019-01-16T03:02:33.240Z,94966.75
2019-01-16T03:05:21.672Z,94972.19
2019-01-16T03:07:57.619Z,94969.38
2019-01-16T03:10:38.706Z,94967.56
2019-01-16T03:13:45.249Z,94956.24
2019-01-16T03:16:47.241Z,94954.97
2019-01-16T03:19:41.948Z,94946.11
2019-01-16T03:22:36.604Z,94933.98
2019-01-16T03:25:37.492Z,94936.10
2019-01-16T03:28:28.693Z,94943.30
2019-01-16T03:31:13.065Z,94946.42
2019-01-16T03:33:57.070Z,94952.09
2019-01-16T03:36:44.123Z,94949.41
2019-01-16T03:39:32.277Z,94958.66
2019-01-16T03:42:36.038Z,94965.72
2019-01-16T03:45:25.231Z,94963.50
2019-01-16T03:48:21.665Z,94968.18
2019-01-16T03:51:12.996Z,94969.20
2019-01-16T03:54:10.547Z,94969.91
2019-01-16T03:56:54.510Z,94964.47
2019-01-16T03:59:32.114Z,94971.45
2019-01-16T04:02:23.690Z,94968.50
2019-01-16T04:05:12.200Z,94969.73
2019-01-16T04:07:54.462Z,94970.48
2019-01-16T04:11:01.247Z,94968.66
2019-01-16T04:13:53.798Z,94965.00
2019-01-16T04:16:57.265Z,94966.48
2019-01-16T04:20:04.081Z,94971.34
2019-01-16T04:22:52.465Z,94974.62
2019-01-16T04:25:56.242Z,94976.55
2019-01-16T04:28:42.319Z,94976.16
2019-01-16T04:31:29.235Z,94975.34
2019-01-16T04:34:23.493Z,94976.91
2019-01-16T04:37:10.725Z,94968.33
2019-01-16T04:40:05.075Z,94970.37
2019-01-16T04:42:52.408Z,94967.52
2019-01-16T04:45:49.972Z,94964.16
2019-01-16T04:48:32.845Z,94956.71
2019-01-16T04:51:30.270Z,94954.38
2019-01-16T04:54:17.649Z,94952.08
2019-01-16T04:57:06.303Z,94955.39
2019-01-16T05:00:09.793Z,94959.11
2019-01-16T05:02:58.248Z,94962.01
2019-01-16T05:05:52.444Z,94960.22
2019-01-16T05:08:40.882Z,94957.33
2019-01-16T05:11:27.974Z,94961.70
2019-01-16T05:14:17.864Z,94963.28
2019-01-16T05:17:06.332Z,94961.28
2019-01-16T05:19:54.818Z,94962.27
2019-01-16T05:22:55.418Z,94964.14
2019-01-16T05:25:52.877Z,94969.45
2019-01-16T05:28:39.870Z,94960.86
2019-01-16T05:31:31.187Z,94971.39
2019-01-16T05:34:28.891Z,94964.77
2019-01-16T05:37:29.450Z,94973.11
2019-01-16T05:40:33.058Z,94965.83
2019-01-16T05:43:18.078Z,94970.43
2019-01-16T05:46:05.100Z,94965.44
2019-01-16T05:48:56.744Z,94966.99
2019-01-16T05:51:44.003Z,94968.05
2019-01-16T05:54:31.158Z,94970.65
2019-01-16T05:57:18.313Z,94973.45
2019-01-16T05:59:56.110Z,94978.89
2019-01-16T06:02:43.328Z,94992.77
2019-01-16T06:05:21.330Z,94987.80
2019-01-16T06:08:09.839Z,94993.80
2019-01-16T06:10:47.585Z,94984.87
2019-01-16T06:13:36.016Z,94990.16
2019-01-16T06:16:42.553Z,94983.24
2019-01-16T06:19:31.036Z,94985.46
2019-01-16T06:22:15.452Z,94979.13
2019-01-16T06:25:06.710Z,94983.26
2019-01-16T06:28:04.265Z,94978.53
2019-01-16T06:30:48.827Z,94981.39
2019-01-16T06:33:36.812Z,94987.40
2019-01-16T06:36:23.780Z,94994.38
2019-01-16T06:39:21.190Z,94984.25
2019-01-16T06:42:12.294Z,95002.03
2019-01-16T06:45:03.742Z,94997.48
2019-01-16T06:47:52.898Z,95003.31
2019-01-16T06:50:37.428Z,95009.48
2019-01-16T06:53:32.019Z,95002.38
2019-01-16T06:56:26.512Z,94996.78
2019-01-16T06:59:10.669Z,95007.25
2019-01-16T07:01:59.097Z,95007.71
2019-01-16T07:04:46.070Z,95005.53
2019-01-16T07:07:23.322Z,95021.41
2019-01-16T07:10:20.645Z,95026.17
2019-01-16T07:13:11.821Z,95029.80
2019-01-16T07:15:58.865Z,95023.36
2019-01-16T07:19:02.458Z,95030.67
2019-01-16T07:22:09.412Z,95026.91
2019-01-16T07:25:01.089Z,95029.38
2019-01-16T07:27:41.319Z,95031.32
2019-01-16T07:30:28.180Z,95020.73
2019-01-16T07:33:15.084Z,95030.67
2019-01-16T07:36:02.148Z,95033.56
2019-01-16T07:38:50.557Z,95036.50
2019-01-16T07:41:39.012Z,95038.17
2019-01-16T07:44:42.385Z,95047.56
2019-01-16T07:47:20.866Z,95052.59
2019-01-16T07:50:17.347Z,95045.30
2019-01-16T07:53:06.879Z,95045.67
2019-01-16T07:55:55.399Z,95046.64
2019-01-16T07:58:38.335Z,95041.27
2019-01-16T08:01:36.024Z,95049.08
2019-01-16T08:04:36.819Z,95054.53
2019-01-16T08:07:27.949Z,95052.80
2019-01-16T08:10:14.996Z,95053.61
2019-01-16T08:13:02.151Z,95049.17
2019-01-16T08:15:50.627Z,95054.53
2019-01-16T08:18:33.796Z,95044.20
2019-01-16T08:21:19.576Z,95036.82
2019-01-16T08:24:13.402Z,95039.83
2019-01-16T08:27:17.135Z,95043.40
2019-01-16T08:30:03.332Z,95042.80
2019-01-16T08:32:54.835Z,95048.44
2019-01-16T08:35:37.173Z,95040.38
2019-01-16T08:38:28.871Z,95035.49
2019-01-16T08:41:22.331Z,95029.81
2019-01-16T08:44:18.929Z,95028.26
2019-01-16T08:46:59.586Z,95024.31
2019-01-16T08:49:54.079Z,95025.56
2019-01-16T08:52:54.550Z,95021.88
2019-01-16T08:55:42.894Z,95000.77
2019-01-16T08:58:37.413Z,95012.84
2019-01-16T09:01:41.156Z,95007.81
2019-01-16T09:04:30.199Z,95012.36
2019-01-16T09:07:18.866Z,95007.66
2019-01-16T09:10:05.786Z,95002.98
2019-01-16T09:13:03.257Z,95002.98
2019-01-16T09:15:51.664Z,94999.48
2019-01-16T09:18:31.647Z,95005.24
2019-01-16T09:21:10.458Z,94994.78
2019-01-16T09:23:58.899Z,94999.95
2019-01-16T09:26:47.350Z,94997.88
2019-01-16T09:29:34.666Z,94997.74
2019-01-16T09:32:25.883Z,94995.06
2019-01-16T09:35:15.705Z,94995.24
2019-01-16T09:38:15.995Z,94992.25
2019-01-16T09:41:03.076Z,94990.22
2019-01-16T09:43:50.682Z,95005.20
2019-01-16T09:46:44.914Z,95002.86
2019-01-16T09:49:42.118Z,94995.06
2019-01-16T09:52:31.071Z,94987.70
2019-01-16T09:55:27.098Z,94984.07
2019-01-16T09:58:27.568Z,94993.45
2019-01-16T10:01:14.890Z,94984.95
2019-01-16T10:04:09.404Z,94981.70
2019-01-16T10:06:57.807Z,94981.33
2019-01-16T10:09:58.641Z,94983.73
2019-01-16T10:12:56.154Z,94975.16
2019-01-16T10:15:43.258Z,94973.06
2019-01-16T10:18:31.653Z,94972.26
2019-01-16T10:21:20.093Z,94968.23
2019-01-16T10:24:17.951Z,94971.25
2019-01-16T10:27:09.603Z,94952.73
2019-01-16T10:30:03.916Z,94955.57
2019-01-16T10:32:58.354Z,94950.61
2019-01-16T10:35:45.653Z,94939.19
2019-01-16T10:38:43.107Z,94949.11
2019-01-16T10:41:30.091Z,94936.45
2019-01-16T10:44:13.905Z,94922.76
2019-01-16T10:47:17.496Z,94931.27
2019-01-16T10:50:05.387Z,94929.80
2019-01-16T10:52:52.486Z,94915.39
2019-01-16T10:55:47.027Z,94919.53
2019-01-16T10:58:41.370Z,94928.45
2019-01-16T11:01:18.614Z,94934.63
2019-01-16T11:04:06.899Z,94926.49
2019-01-16T11:06:54.002Z,94914.76
2019-01-16T11:09:54.613Z,94916.26
2019-01-16T11:12:49.228Z,94930.98
2019-01-16T11:15:46.877Z,94926.76
2019-01-16T11:18:33.873Z,94928.58
2019-01-16T11:21:22.169Z,94941.34
2019-01-16T11:24:16.413Z,94921.11
2019-01-16T11:27:04.795Z,94929.16
2019-01-16T11:29:56.079Z,94929.80
2019-01-16T11:32:47.533Z,94931.06
2019-01-16T11:35:48.334Z,94938.55
2019-01-16T11:38:36.856Z,94933.00
2019-01-16T11:41:43.357Z,94953.99
2019-01-16T11:44:50.190Z,94928.69
2019-01-16T11:47:35.458Z,94946.95
2019-01-16T11:50:28.278Z,94952.49
2019-01-16T11:53:22.564Z,94958.08
2019-01-16T11:56:09.909Z,94957.21
2019-01-16T11:58:57.093Z,94938.94
2019-01-16T12:01:54.775Z,94943.24
2019-01-16T12:04:38.056Z,94942.58
2019-01-16T12:07:26.693Z,94950.09
2019-01-16T12:10:20.832Z,94937.88
2019-01-16T12:12:59.454Z,94935.30
2019-01-16T12:15:40.907Z,94938.10
2019-01-16T12:18:27.929Z,94932.28
2019-01-16T12:21:15.114Z,94941.91
2019-01-16T12:24:18.626Z,94933.48
2019-01-16T12:27:10.077Z,94938.58
2019-01-16T12:29:57.452Z,94945.09
2019-01-16T12:32:45.913Z,94934.72
2019-01-16T12:35:49.310Z,94949.23
2019-01-16T12:38:46.649Z,94956.17
2019-01-16T12:41:38.056Z,94936.36
2019-01-16T12:44:19.071Z,94950.70
2019-01-16T12:47:06.466Z,94965.59
2019-01-16T12:50:02.501Z,94969.24
2019-01-16T12:52:54.086Z,94961.18
2019-01-16T12:55:55.302Z,94957.00
2019-01-16T12:58:35.182Z,94966.77
2019-01-16T13:01:26.709Z,94966.01
2019-01-16T13:04:18.385Z,94950.20
2019-01-16T13:07:07.057Z,94954.72
2019-01-16T13:09:56.147Z,94951.02
2019-01-16T13:12:43.553Z,94960.25
2019-01-16T13:15:36.631Z,94960.14
2019-01-16T13:18:25.171Z,94948.37
2019-01-16T13:21:32.097Z,94954.54
2019-01-16T13:24:20.634Z,94953.24
2019-01-16T13:27:17.863Z,94962.49
2019-01-16T13:30:06.309Z,94959.86
2019-01-16T13:32:54.570Z,94973.73
2019-01-16T13:35:42.999Z,94962.22
2019-01-16T13:38:29.446Z,94972.28
2019-01-16T13:41:26.890Z,94970.23
2019-01-16T13:44:27.340Z,94973.31
2019-01-16T13:47:14.760Z,94967.50
2019-01-16T13:50:01.690Z,94963.59
2019-01-16T13:52:48.851Z,94953.58
2019-01-16T13:55:37.322Z,94959.49
2019-01-16T13:58:24.660Z,94955.02
2019-01-16T14:01:13.919Z,94964.08
2019-01-16T14:04:02.353Z,94960.25
2019-01-16T14:06:37.708Z,94968.75
2019-01-16T14:09:30.566Z,94975.28
2019-01-16T14:12:17.684Z,94978.86
2019-01-16T14:15:05.034Z,94978.20
2019-01-16T14:18:02.674Z,94985.15
2019-01-16T14:20:42.203Z,94977.90
2019-01-16T14:23:42.884Z,94976.17
2019-01-16T14:26:37.210Z,94983.64
2019-01-16T14:29:37.794Z,94982.91
2019-01-16T14:32:26.928Z,94989.39
2019-01-16T14:35:16.083Z,94988.91
2019-01-16T14:38:03.231Z,94990.26
2019-01-16T14:40:50.519Z,94982.95
2019-01-16T14:43:45.097Z,94989.03
2019-01-16T14:46:52.098Z,94994.61
2019-01-16T14:49:40.108Z,94996.81
2019-01-16T14:52:27.137Z,95006.98
2019-01-16T14:55:27.506Z,95010.50
2019-01-16T14:58:15.949Z,95009.11
2019-01-16T15:00:56.541Z,95010.67
2019-01-16T15:03:43.453Z,95001.41
2019-01-16T15:06:30.572Z,95015.48
2019-01-16T15:09:28.223Z,95010.17
2019-01-16T15:12:19.462Z,95021.11
2019-01-16T15:15:06.779Z,95022.92
2019-01-16T15:17:53.825Z,95023.73
2019-01-16T15:20:41.205Z,95030.11
2019-01-16T15:23:47.772Z,95027.70
2019-01-16T15:26:42.664Z,95031.95
2019-01-16T15:29:46.503Z,95041.89
2019-01-16T15:32:33.934Z,95043.11
2019-01-16T15:35:22.407Z,95052.92
2019-01-16T15:38:13.902Z,95043.89
2019-01-16T15:41:17.634Z,95034.44
2019-01-16T15:43:59.324Z,95031.69
2019-01-16T15:46:44.064Z,95029.54
2019-01-16T15:49:47.794Z,95029.59
2019-01-16T15:52:41.943Z,95039.03
2019-01-16T15:55:42.452Z,95037.29
2019-01-16T15:58:20.715Z,95048.25
2019-01-16T16:01:14.354Z,95039.60
2019-01-16T16:04:20.890Z,95043.91
2019-01-16T16:07:11.041Z,95078.09
2019-01-16T16:10:11.263Z,95078.74
2019-01-16T16:13:02.361Z,95082.20
2019-01-16T16:15:53.617Z,95076.53
2019-01-16T16:18:45.087Z,95072.03
2019-01-16T16:21:33.542Z,95086.42
2019-01-16T16:24:27.850Z,95075.19
2019-01-16T16:27:28.575Z,95076.13
2019-01-16T16:30:19.936Z,95072.19
2019-01-16T16:33:08.337Z,95080.77
2019-01-16T16:36:08.097Z,95089.98
2019-01-16T16:38:59.308Z,95081.15
2019-01-16T16:41:47.725Z,95090.77
2019-01-16T16:44:42.122Z,95106.06
2019-01-16T16:47:33.573Z,95098.94
2019-01-16T16:50:40.505Z,95101.44
2019-01-16T16:53:27.320Z,95089.13
2019-01-16T16:56:18.712Z,95093.51
2019-01-16T16:59:10.266Z,95095.23
2019-01-16T17:02:04.805Z,95098.66
2019-01-16T17:04:52.088Z,95110.45
2019-01-16T17:07:43.652Z,95110.37
2019-01-16T17:10:19.824Z,95107.63
2019-01-16T17:13:11.002Z,95108.28
2019-01-16T17:15:59.433Z,95112.06
2019-01-16T17:18:56.637Z,95115.09
2019-01-16T17:21:51.213Z,95109.84
2019-01-16T17:24:48.757Z,95102.06
2019-01-16T17:27:49.061Z,95108.63
2019-01-16T17:30:52.571Z,95109.93
2019-01-16T17:33:50.061Z,95102.13
2019-01-16T17:36:41.454Z,95108.52
2019-01-16T17:39:48.313Z,95113.17
2019-01-16T17:42:45.598Z,95111.99
2019-01-16T17:45:43.167Z,95120.75
2019-01-16T17:48:37.301Z,95120.72
2019-01-16T17:51:25.822Z,95121.59
2019-01-16T17:54:23.023Z,95117.48
2019-01-16T17:57:17.354Z,95120.42
2019-01-16T18:00:14.414Z,95119.26
2019-01-16T18:03:02.302Z,95122.29
2019-01-16T18:05:59.967Z,95128.23
2019-01-16T18:08:39.270Z,95131.66
2019-01-16T18:11:27.688Z,95122.45
2019-01-16T18:14:21.961Z,95133.41
2019-01-16T18:17:09.292Z,95140.48
2019-01-16T18:19:50.063Z,95135.89
2019-01-16T18:22:45.164Z,95143.95
2019-01-16T18:25:28.743Z,95138.98
2019-01-16T18:28:35.346Z,95142.23
2019-01-16T18:31:35.751Z,95151.23
2019-01-16T18:34:27.024Z,95152.12
2019-01-16T18:37:21.286Z,95150.38
2019-01-16T18:40:12.830Z,95155.50
2019-01-16T18:43:02.845Z,95157.65
2019-01-16T18:45:50.278Z,95156.91
2019-01-16T18:49:00.723Z,95159.52
2019-01-16T18:52:10.271Z,95165.95
2019-01-16T18:55:48.740Z,95169.52
2019-01-16T18:58:59.360Z,95175.06
2019-01-16T19:01:56.978Z,95185.03
2019-01-16T19:04:54.485Z,95186.91
2019-01-16T19:08:20.840Z,95192.63
2019-01-16T19:11:54.455Z,95195.31
2019-01-16T19:15:26.722Z,95197.92
2019-01-16T19:18:13.865Z,95200.05
2019-01-16T19:21:29.959Z,95208.39
2019-01-16T19:24:18.328Z,95218.31
2019-01-16T19:27:21.907Z,95216.70
2019-01-16T19:30:28.708Z,95221.91
2019-01-16T19:33:09.265Z,95226.46
2019-01-16T19:36:03.859Z,95228.27
2019-01-16T19:38:55.370Z,95229.99
2019-01-16T19:41:48.326Z,95229.11
2019-01-16T19:44:42.065Z,95232.32
2019-01-16T19:47:57.985Z,95231.16
2019-01-16T19:51:07.863Z,95229.11
2019-01-16T19:54:53.144Z,95247.30
2019-01-16T19:57:48.386Z,95248.64
2019-01-16T20:01:04.999Z,95249.38
2019-01-16T20:03:50.226Z,95250.34
2019-01-16T20:06:40.465Z,95245.19
2019-01-16T20:09:28.902Z,95247.30
2019-01-16T20:12:23.508Z,95247.44
2019-01-16T20:15:12.813Z,95257.36
2019-01-16T20:18:06.932Z,95250.13
2019-01-16T20:21:07.098Z,95258.50
2019-01-16T20:23:48.475Z,95258.56
2019-01-16T20:26:35.764Z,95260.51
2019-01-16T20:29:24.187Z,95258.88
2019-01-16T20:32:21.745Z,95255.31
2019-01-16T20:35:10.258Z,95265.70
2019-01-16T20:37:55.889Z,95268.10
2019-01-16T20:40:38.213Z,95274.42
2019-01-16T20:43:15.900Z,95275.94
2019-01-16T20:49:18.489Z,95273.26
2019-01-16T20:52:01.232Z,95282.84
2019-01-16T20:54:55.690Z,95276.02
2019-01-16T20:57:44.097Z,95284.59
2019-01-16T21:00:37.222Z,95287.18
2019-01-16T21:03:37.815Z,95290.00
2019-01-16T21:06:26.193Z,95289.27
2019-01-16T21:09:20.426Z,95299.76
2019-01-16T21:12:08.822Z,95304.95
2019-01-16T21:14:55.898Z,95300.61
2019-01-16T21:17:53.546Z,95293.39
2019-01-16T21:20:50.658Z,95298.87
2019-01-16T21:23:37.894Z,95305.13
2019-01-16T21:26:29.124Z,95303.78
2019-01-16T21:29:17.563Z,95300.28
2019-01-16T21:32:02.211Z,95304.13
2019-01-16T21:35:02.673Z,95286.86
2019-01-16T21:37:55.906Z,95302.41
2019-01-16T21:40:43.243Z,95304.48
2019-01-16T21:43:30.640Z,95300.22
2019-01-16T21:46:22.139Z,95305.47
2019-01-16T21:49:07.354Z,95310.84
2019-01-16T21:51:59.745Z,95306.81
2019-01-16T21:54:51.284Z,95312.67
2019-01-16T21:57:45.700Z,95308.44
2019-01-16T22:00:47.229Z,95304.34
2019-01-16T22:03:38.553Z,95310.45
2019-01-16T22:06:20.174Z,95310.77
2019-01-16T22:09:14.999Z,95306.14
2019-01-16T22:11:58.827Z,95298.37
2019-01-16T22:14:46.369Z,95296.22
2019-01-16T22:17:41.007Z,95300.55
2019-01-16T22:20:32.462Z,95305.16
2019-01-16T22:23:27.160Z,95305.97
2019-01-16T22:26:18.784Z,95295.05
2019-01-16T22:29:10.367Z,95299.13
2019-01-16T22:32:10.873Z,95301.67
2019-01-16T22:34:58.625Z,95299.52
2019-01-16T22:37:35.235Z,95305.78
2019-01-16T22:40:29.875Z,95299.95
2019-01-16T22:43:30.571Z,95292.13
2019-01-16T22:46:19.173Z,95300.86
2019-01-16T22:49:10.441Z,95308.75
2019-01-16T22:52:07.988Z,95303.09
2019-01-16T22:55:02.303Z,95296.38
2019-01-16T22:57:57.447Z,95289.07
2019-01-16T23:00:53.722Z,95286.31
2019-01-16T23:03:42.215Z,95284.44
2019-01-16T23:06:31.397Z,95295.78
2019-01-16T23:09:28.937Z,95286.10
2019-01-16T23:12:20.419Z,95286.03
2019-01-16T23:15:04.919Z,95288.55
2019-01-16T23:18:00.119Z,95284.77
2019-01-16T23:20:47.142Z,95282.89
2019-01-16T23:23:41.936Z,95286.67
2019-01-16T23:26:30.551Z,95285.05
2019-01-16T23:29:17.810Z,95283.49
2019-01-16T23:32:05.358Z,95288.19
2019-01-16T23:34:53.891Z,95286.23
2019-01-16T23:37:36.409Z,95292.42
2019-01-16T23:40:32.120Z,95284.77
2019-01-16T23:43:35.586Z,95282.81
2019-01-16T23:46:36.521Z,95288.55
2019-01-16T23:49:25.550Z,95288.64
2019-01-16T23:52:12.632Z,95288.92
2019-01-16T23:54:59.790Z,95287.05
2019-01-16T23:57:43.098Z,95291.61
